sensor_id;sensor_type;location;lat;lon;timestamp;P1;durP1;ratioP1;P2;durP2;ratioP2
67164;SDS011;54093;50.014;19.984;2023-02-14T00:08:46;16.88;;;9.18;;
67164;SDS011;54093;50.014;19.984;2023-02-14T00:18:06;22.45;;;12.43;;
67164;SDS011;54093;50.014;19.984;2023-02-14T00:27:27;15.00;;;8.75;;
67164;SDS011;54093;50.014;19.984;2023-02-14T00:36:48;16.58;;;10.88;;
67164;SDS011;54093;50.014;19.984;2023-02-14T00:46:09;12.43;;;9.57;;
67164;SDS011;54093;50.014;19.984;2023-02-14T00:55:30;15.93;;;10.38;;
67164;SDS011;54093;50.014;19.984;2023-02-14T01:04:51;24.63;;;10.00;;
67164;SDS011;54093;50.014;19.984;2023-02-14T01:14:12;18.25;;;10.48;;
67164;SDS011;54093;50.014;19.984;2023-02-14T01:23:33;19.83;;;12.00;;
67164;SDS011;54093;50.014;19.984;2023-02-14T01:32:54;22.67;;;11.20;;
67164;SDS011;54093;50.014;19.984;2023-02-14T01:42:15;30.50;;;14.18;;
67164;SDS011;54093;50.014;19.984;2023-02-14T01:51:37;16.05;;;9.98;;
67164;SDS011;54093;50.014;19.984;2023-02-14T02:01:03;21.35;;;11.40;;
67164;SDS011;54093;50.014;19.984;2023-02-14T02:10:25;16.27;;;9.73;;
67164;SDS011;54093;50.014;19.984;2023-02-14T02:39:52;15.63;;;9.80;;
67164;SDS011;54093;50.014;19.984;2023-02-14T02:48:58;16.00;;;10.95;;
67164;SDS011;54093;50.014;19.984;2023-02-14T02:58:57;19.00;;;11.18;;
67164;SDS011;54093;50.014;19.984;2023-02-14T03:08:19;21.48;;;12.25;;
67164;SDS011;54093;50.014;19.984;2023-02-14T03:37:00;19.05;;;10.05;;
67164;SDS011;54093;50.014;19.984;2023-02-14T03:46:29;14.65;;;10.50;;
67164;SDS011;54093;50.014;19.984;2023-02-14T03:55:55;10.20;;;8.43;;
67164;SDS011;54093;50.014;19.984;2023-02-14T04:05:23;12.32;;;10.13;;
67164;SDS011;54093;50.014;19.984;2023-02-14T04:14:46;17.40;;;12.07;;
67164;SDS011;54093;50.014;19.984;2023-02-14T04:24:07;22.45;;;11.25;;
67164;SDS011;54093;50.014;19.984;2023-02-14T04:33:28;15.20;;;10.95;;
67164;SDS011;54093;50.014;19.984;2023-02-14T04:42:49;23.48;;;15.15;;
67164;SDS011;54093;50.014;19.984;2023-02-14T04:52:10;23.08;;;11.32;;
67164;SDS011;54093;50.014;19.984;2023-02-14T05:01:32;18.83;;;10.55;;
67164;SDS011;54093;50.014;19.984;2023-02-14T05:10:53;20.92;;;12.05;;
67164;SDS011;54093;50.014;19.984;2023-02-14T05:20:14;16.65;;;11.88;;
67164;SDS011;54093;50.014;19.984;2023-02-14T05:29:35;24.85;;;11.73;;
67164;SDS011;54093;50.014;19.984;2023-02-14T05:38:56;20.55;;;11.27;;
67164;SDS011;54093;50.014;19.984;2023-02-14T05:48:17;19.02;;;11.95;;
67164;SDS011;54093;50.014;19.984;2023-02-14T05:57:38;28.60;;;16.77;;
67164;SDS011;54093;50.014;19.984;2023-02-14T06:06:59;24.95;;;13.88;;
67164;SDS011;54093;50.014;19.984;2023-02-14T06:16:20;27.52;;;13.52;;
67164;SDS011;54093;50.014;19.984;2023-02-14T06:25:41;26.08;;;14.93;;
67164;SDS011;54093;50.014;19.984;2023-02-14T06:35:02;13.82;;;11.05;;
67164;SDS011;54093;50.014;19.984;2023-02-14T06:44:23;20.67;;;11.82;;
67164;SDS011;54093;50.014;19.984;2023-02-14T06:53:44;12.95;;;8.55;;
67164;SDS011;54093;50.014;19.984;2023-02-14T07:03:06;22.92;;;13.18;;
67164;SDS011;54093;50.014;19.984;2023-02-14T07:12:27;18.63;;;11.73;;
67164;SDS011;54093;50.014;19.984;2023-02-14T07:21:48;17.70;;;11.75;;
67164;SDS011;54093;50.014;19.984;2023-02-14T07:31:10;25.85;;;12.57;;
67164;SDS011;54093;50.014;19.984;2023-02-14T07:40:31;21.80;;;11.25;;
67164;SDS011;54093;50.014;19.984;2023-02-14T07:49:52;17.55;;;10.50;;
67164;SDS011;54093;50.014;19.984;2023-02-14T07:59:13;19.42;;;11.07;;
67164;SDS011;54093;50.014;19.984;2023-02-14T08:08:34;15.60;;;9.68;;
67164;SDS011;54093;50.014;19.984;2023-02-14T08:17:55;23.35;;;12.98;;
67164;SDS011;54093;50.014;19.984;2023-02-14T08:27:16;28.13;;;13.07;;
67164;SDS011;54093;50.014;19.984;2023-02-14T08:36:37;16.35;;;11.10;;
67164;SDS011;54093;50.014;19.984;2023-02-14T08:45:58;17.73;;;11.55;;
67164;SDS011;54093;50.014;19.984;2023-02-14T08:55:21;15.35;;;11.18;;
67164;SDS011;54093;50.014;19.984;2023-02-14T09:04:42;15.30;;;10.13;;
67164;SDS011;54093;50.014;19.984;2023-02-14T09:14:03;23.08;;;11.50;;
67164;SDS011;54093;50.014;19.984;2023-02-14T09:23:24;13.05;;;10.40;;
67164;SDS011;54093;50.014;19.984;2023-02-14T09:32:45;12.18;;;10.48;;
67164;SDS011;54093;50.014;19.984;2023-02-14T09:42:21;16.05;;;10.38;;
67164;SDS011;54093;50.014;19.984;2023-02-14T09:51:49;22.88;;;14.05;;
67164;SDS011;54093;50.014;19.984;2023-02-14T10:01:14;14.20;;;8.57;;
67164;SDS011;54093;50.014;19.984;2023-02-14T10:10:40;17.20;;;13.10;;
67164;SDS011;54093;50.014;19.984;2023-02-14T10:20:04;11.70;;;9.48;;
67164;SDS011;54093;50.014;19.984;2023-02-14T10:29:36;16.23;;;10.10;;
67164;SDS011;54093;50.014;19.984;2023-02-14T10:39:07;15.80;;;9.07;;
67164;SDS011;54093;50.014;19.984;2023-02-14T10:58:37;12.45;;;8.82;;
67164;SDS011;54093;50.014;19.984;2023-02-14T11:08:00;14.52;;;9.77;;
67164;SDS011;54093;50.014;19.984;2023-02-14T11:17:28;9.70;;;6.85;;
67164;SDS011;54093;50.014;19.984;2023-02-14T11:26:51;7.50;;;6.25;;
67164;SDS011;54093;50.014;19.984;2023-02-14T11:36:15;4.53;;;4.10;;
67164;SDS011;54093;50.014;19.984;2023-02-14T11:45:38;5.13;;;4.65;;
67164;SDS011;54093;50.014;19.984;2023-02-14T11:55:00;5.20;;;4.80;;
67164;SDS011;54093;50.014;19.984;2023-02-14T12:04:26;6.03;;;4.97;;
67164;SDS011;54093;50.014;19.984;2023-02-14T12:13:55;5.90;;;5.32;;
67164;SDS011;54093;50.014;19.984;2023-02-14T12:23:20;5.75;;;5.25;;
67164;SDS011;54093;50.014;19.984;2023-02-14T12:32:50;6.88;;;5.30;;
67164;SDS011;54093;50.014;19.984;2023-02-14T13:02:08;7.03;;;4.63;;
67164;SDS011;54093;50.014;19.984;2023-02-14T13:21:21;6.88;;;6.18;;
67164;SDS011;54093;50.014;19.984;2023-02-14T13:30:44;13.30;;;8.73;;
67164;SDS011;54093;50.014;19.984;2023-02-14T13:40:07;12.85;;;7.55;;
67164;SDS011;54093;50.014;19.984;2023-02-14T13:49:36;14.93;;;8.38;;
67164;SDS011;54093;50.014;19.984;2023-02-14T13:59:05;13.25;;;9.15;;
67164;SDS011;54093;50.014;19.984;2023-02-14T14:18:50;8.80;;;7.68;;
67164;SDS011;54093;50.014;19.984;2023-02-14T14:27:40;10.63;;;6.45;;
67164;SDS011;54093;50.014;19.984;2023-02-14T14:37:05;8.65;;;7.75;;
67164;SDS011;54093;50.014;19.984;2023-02-14T14:46:34;9.05;;;6.43;;
67164;SDS011;54093;50.014;19.984;2023-02-14T14:55:56;8.07;;;6.68;;
67164;SDS011;54093;50.014;19.984;2023-02-14T15:05:25;8.70;;;7.80;;
67164;SDS011;54093;50.014;19.984;2023-02-14T15:14:49;6.47;;;5.55;;
67164;SDS011;54093;50.014;19.984;2023-02-14T15:24:15;7.75;;;6.00;;
67164;SDS011;54093;50.014;19.984;2023-02-14T15:33:37;5.82;;;5.25;;
67164;SDS011;54093;50.014;19.984;2023-02-14T15:43:13;6.50;;;5.85;;
67164;SDS011;54093;50.014;19.984;2023-02-14T15:52:34;7.03;;;6.03;;
67164;SDS011;54093;50.014;19.984;2023-02-14T16:02:12;8.67;;;7.43;;
67164;SDS011;54093;50.014;19.984;2023-02-14T16:11:55;9.13;;;8.23;;
67164;SDS011;54093;50.014;19.984;2023-02-14T16:30:54;7.15;;;5.85;;
67164;SDS011;54093;50.014;19.984;2023-02-14T16:40:16;8.55;;;5.72;;
67164;SDS011;54093;50.014;19.984;2023-02-14T16:49:40;7.63;;;6.65;;
67164;SDS011;54093;50.014;19.984;2023-02-14T16:59:01;6.68;;;5.95;;
67164;SDS011;54093;50.014;19.984;2023-02-14T17:08:23;16.08;;;8.27;;
67164;SDS011;54093;50.014;19.984;2023-02-14T17:17:44;15.55;;;8.75;;
67164;SDS011;54093;50.014;19.984;2023-02-14T17:27:08;9.15;;;7.45;;
67164;SDS011;54093;50.014;19.984;2023-02-14T17:36:29;11.68;;;9.25;;
67164;SDS011;54093;50.014;19.984;2023-02-14T17:45:50;12.55;;;8.15;;
67164;SDS011;54093;50.014;19.984;2023-02-14T17:55:11;13.65;;;11.30;;
67164;SDS011;54093;50.014;19.984;2023-02-14T18:04:33;19.23;;;10.93;;
67164;SDS011;54093;50.014;19.984;2023-02-14T18:13:56;14.43;;;10.27;;
67164;SDS011;54093;50.014;19.984;2023-02-14T18:23:19;23.10;;;13.73;;
67164;SDS011;54093;50.014;19.984;2023-02-14T18:32:40;21.42;;;13.05;;
67164;SDS011;54093;50.014;19.984;2023-02-14T18:42:01;28.90;;;18.05;;
67164;SDS011;54093;50.014;19.984;2023-02-14T18:51:25;23.67;;;12.40;;
67164;SDS011;54093;50.014;19.984;2023-02-14T19:00:47;24.60;;;15.32;;
67164;SDS011;54093;50.014;19.984;2023-02-14T19:10:08;23.58;;;13.30;;
67164;SDS011;54093;50.014;19.984;2023-02-14T19:19:30;23.30;;;13.70;;
67164;SDS011;54093;50.014;19.984;2023-02-14T19:28:55;23.05;;;13.75;;
67164;SDS011;54093;50.014;19.984;2023-02-14T19:38:17;26.67;;;12.82;;
67164;SDS011;54093;50.014;19.984;2023-02-14T19:47:38;26.45;;;14.85;;
67164;SDS011;54093;50.014;19.984;2023-02-14T19:56:59;27.00;;;15.18;;
67164;SDS011;54093;50.014;19.984;2023-02-14T20:06:20;21.77;;;11.38;;
67164;SDS011;54093;50.014;19.984;2023-02-14T20:15:42;16.48;;;9.57;;
67164;SDS011;54093;50.014;19.984;2023-02-14T20:25:05;15.18;;;10.02;;
67164;SDS011;54093;50.014;19.984;2023-02-14T20:34:28;21.10;;;10.50;;
67164;SDS011;54093;50.014;19.984;2023-02-14T20:43:49;19.92;;;10.77;;
67164;SDS011;54093;50.014;19.984;2023-02-14T20:53:10;14.15;;;10.63;;
67164;SDS011;54093;50.014;19.984;2023-02-14T21:02:31;18.75;;;11.27;;
67164;SDS011;54093;50.014;19.984;2023-02-14T21:11:52;15.50;;;9.88;;
67164;SDS011;54093;50.014;19.984;2023-02-14T21:21:14;20.98;;;12.82;;
67164;SDS011;54093;50.014;19.984;2023-02-14T21:30:39;10.90;;;9.35;;
67164;SDS011;54093;50.014;19.984;2023-02-14T21:40:00;21.38;;;11.68;;
67164;SDS011;54093;50.014;19.984;2023-02-14T21:49:22;16.25;;;10.27;;
67164;SDS011;54093;50.014;19.984;2023-02-14T21:59:22;21.95;;;9.98;;
67164;SDS011;54093;50.014;19.984;2023-02-14T22:08:43;17.58;;;9.65;;
67164;SDS011;54093;50.014;19.984;2023-02-14T22:18:04;16.42;;;9.93;;
67164;SDS011;54093;50.014;19.984;2023-02-14T22:27:26;24.23;;;14.68;;
67164;SDS011;54093;50.014;19.984;2023-02-14T22:36:49;32.42;;;16.27;;
67164;SDS011;54093;50.014;19.984;2023-02-14T22:46:12;28.38;;;16.02;;
67164;SDS011;54093;50.014;19.984;2023-02-14T22:55:34;32.55;;;17.52;;
67164;SDS011;54093;50.014;19.984;2023-02-14T23:04:55;37.08;;;17.73;;
67164;SDS011;54093;50.014;19.984;2023-02-14T23:14:16;34.90;;;17.38;;
67164;SDS011;54093;50.014;19.984;2023-02-14T23:23:56;30.35;;;14.93;;
67164;SDS011;54093;50.014;19.984;2023-02-14T23:33:17;44.33;;;18.60;;
67164;SDS011;54093;50.014;19.984;2023-02-14T23:42:38;11.65;;;8.80;;
67164;SDS011;54093;50.014;19.984;2023-02-14T23:51:59;16.05;;;10.68;;
